Time;durP1;ratioP1;P1;durP2;ratioP2;P2;SDS_P1;SDS_P2;PMS_P1;PMS_P2;Temp;Humidity;BMP_temperature;BMP_pressure;BME280_temperature;BME280_humidity;BME280_pressure;Samples;Min_cycle;Max_cycle;Signal;HPM_P1;HPM_P2
2023/01/10 06:00:19;;;;;;;5.13;2.30;;;6.20;97.20;;;;;;1720197;28;20185;-68
2023/01/10 06:01:10;;;;;;;9.88;3.53;;;6.20;97.20;;;;;;1720948;28;20659;-67
2023/01/10 06:02:02;;;;;;;6.50;2.40;;;6.20;97.20;;;;;;1717150;28;20613;-67
2023/01/10 06:02:53;;;;;;;8.60;2.92;;;6.20;97.20;;;;;;1716728;28;20205;-67
2023/01/10 06:03:45;;;;;;;4.07;2.42;;;6.20;97.20;;;;;;1716576;28;20202;-68
2023/01/10 06:04:35;;;;;;;6.63;2.35;;;6.20;97.20;;;;;;1720780;28;20601;-68
2023/01/10 06:05:27;;;;;;;8.30;2.80;;;6.20;97.20;;;;;;1720972;28;20589;-68
2023/01/10 06:06:18;;;;;;;6.00;1.83;;;6.20;97.20;;;;;;1721070;28;20205;-68
2023/01/10 06:07:09;;;;;;;6.37;2.57;;;6.20;97.20;;;;;;1720561;28;20663;-67
2023/01/10 06:08:00;;;;;;;4.72;1.90;;;6.20;97.20;;;;;;1714428;28;20249;-68
2023/01/10 06:08:54;;;;;;;10.37;2.33;;;6.20;97.20;;;;;;1713510;28;20672;-68
2023/01/10 06:09:45;;;;;;;6.53;2.30;;;6.20;97.20;;;;;;1717132;28;20205;-67
2023/01/10 06:10:37;;;;;;;5.50;2.07;;;6.20;97.20;;;;;;1720787;28;20232;-68
2023/01/10 06:11:28;;;;;;;9.18;2.03;;;6.20;97.20;;;;;;1720521;28;20448;-68
2023/01/10 06:12:20;;;;;;;9.55;2.83;;;6.20;97.20;;;;;;1720816;28;20193;-67
2023/01/10 06:13:11;;;;;;;7.45;2.10;;;6.20;97.20;;;;;;1720759;28;20216;-67
2023/01/10 06:14:03;;;;;;;6.27;2.33;;;6.20;97.20;;;;;;1721058;28;20201;-68
2023/01/10 06:14:54;;;;;;;7.93;2.38;;;6.10;97.20;;;;;;1720798;28;20448;-68
2023/01/10 06:15:47;;;;;;;9.00;2.90;;;6.10;97.20;;;;;;1720850;28;20212;-68
2023/01/10 06:16:37;;;;;;;5.35;2.17;;;6.10;97.20;;;;;;1720856;28;20675;-68
2023/01/10 06:17:29;;;;;;;4.40;2.70;;;6.10;97.20;;;;;;1716811;28;20202;-68
2023/01/10 06:18:20;;;;;;;9.85;2.30;;;6.10;97.20;;;;;;1720524;28;20220;-68
2023/01/10 06:19:12;;;;;;;4.70;2.30;;;6.00;97.20;;;;;;1720281;28;20227;-68
2023/01/10 06:20:03;;;;;;;7.65;2.53;;;6.00;97.20;;;;;;1720348;28;20212;-67
2023/01/10 06:20:55;;;;;;;8.98;2.75;;;6.00;97.20;;;;;;1720687;28;20229;-69
2023/01/10 06:21:45;;;;;;;8.20;2.00;;;6.00;97.20;;;;;;1720769;28;20209;-68
2023/01/10 06:22:40;;;;;;;4.03;1.97;;;6.00;97.20;;;;;;1720936;28;20639;-68
2023/01/10 06:23:30;;;;;;;4.03;2.35;;;6.00;97.20;;;;;;1720662;28;20798;-68
2023/01/10 06:24:22;;;;;;;5.90;2.20;;;6.00;97.20;;;;;;1720445;28;20679;-68
2023/01/10 06:25:13;;;;;;;9.98;2.92;;;5.90;97.20;;;;;;1720793;28;20448;-68
2023/01/10 06:26:05;;;;;;;5.80;2.60;;;5.90;97.20;;;;;;1720704;28;20198;-68
2023/01/10 06:26:56;;;;;;;11.40;2.30;;;5.90;97.20;;;;;;1720575;28;20201;-69
2023/01/10 06:27:48;;;;;;;8.90;2.27;;;5.90;97.20;;;;;;1720715;28;20201;-69
2023/01/10 06:28:39;;;;;;;7.15;2.78;;;5.90;97.20;;;;;;1720343;28;20709;-68
2023/01/10 06:29:32;;;;;;;8.02;4.45;;;5.90;97.20;;;;;;1720680;28;20207;-68
2023/01/10 06:30:22;;;;;;;6.07;3.00;;;5.90;97.20;;;;;;1718647;28;20197;-69
2023/01/10 06:31:16;;;;;;;5.90;3.23;;;5.80;97.20;;;;;;1708362;28;20210;-69
2023/01/10 06:32:06;;;;;;;9.15;2.67;;;5.90;97.20;;;;;;1707303;28;20210;-67
2023/01/10 06:33:01;;;;;;;10.00;3.47;;;5.90;97.20;;;;;;1707505;28;20233;-67
2023/01/10 06:33:52;;;;;;;9.80;4.18;;;5.90;97.20;;;;;;1707314;28;20265;-67
2023/01/10 06:34:44;;;;;;;12.30;4.55;;;6.00;97.20;;;;;;1707514;28;20657;-67
2023/01/10 06:35:35;;;;;;;10.23;4.05;;;6.00;97.20;;;;;;1707404;28;20210;-67
2023/01/10 06:36:26;;;;;;;6.90;3.38;;;6.00;97.20;;;;;;1707396;28;20269;-67
2023/01/10 06:37:17;;;;;;;6.65;2.80;;;6.00;97.20;;;;;;1707312;28;20206;-68
2023/01/10 06:38:09;;;;;;;7.68;3.20;;;6.10;97.20;;;;;;1707452;28;20206;-67
2023/01/10 06:39:00;;;;;;;7.05;2.63;;;6.10;97.20;;;;;;1706969;28;20586;-67
2023/01/10 06:39:52;;;;;;;7.38;2.97;;;6.10;97.20;;;;;;1707291;28;20213;-68
2023/01/10 06:40:43;;;;;;;5.72;2.58;;;6.10;97.20;;;;;;1707436;28;21219;-68
2023/01/10 06:41:35;;;;;;;8.10;2.60;;;6.20;97.20;;;;;;1707474;28;20538;-68
2023/01/10 06:42:26;;;;;;;10.98;2.75;;;6.20;97.20;;;;;;1707155;28;20582;-69
2023/01/10 06:43:17;;;;;;;6.10;2.03;;;6.20;97.20;;;;;;1707435;28;20568;-69
2023/01/10 06:44:08;;;;;;;5.88;2.65;;;6.20;97.20;;;;;;1707102;28;20553;-69
2023/01/10 06:45:00;;;;;;;5.80;2.30;;;6.30;97.20;;;;;;1707288;28;20571;-69
2023/01/10 06:45:51;;;;;;;7.47;2.92;;;6.30;97.20;;;;;;1707175;28;20464;-69
2023/01/10 06:46:44;;;;;;;6.90;2.77;;;6.30;97.20;;;;;;1707244;28;20210;-69
2023/01/10 06:47:35;;;;;;;8.02;3.05;;;6.30;97.20;;;;;;1707293;28;20207;-69
2023/01/10 06:48:26;;;;;;;4.43;2.60;;;6.30;97.20;;;;;;1707019;28;20308;-69
2023/01/10 06:49:17;;;;;;;7.45;3.03;;;6.30;97.20;;;;;;1706945;28;20221;-69
2023/01/10 06:50:10;;;;;;;5.87;2.50;;;6.30;97.20;;;;;;1707030;28;20201;-69
2023/01/10 06:51:01;;;;;;;6.40;3.38;;;6.30;97.20;;;;;;1707486;28;20687;-69
2023/01/10 06:51:53;;;;;;;3.97;2.73;;;6.30;97.20;;;;;;1707369;28;20564;-69
2023/01/10 06:52:43;;;;;;;9.00;3.15;;;6.30;97.20;;;;;;1707446;28;20817;-69
2023/01/10 06:53:35;;;;;;;10.50;2.83;;;6.30;97.20;;;;;;1707315;28;20675;-68
2023/01/10 06:54:26;;;;;;;5.95;2.50;;;6.30;97.20;;;;;;1707324;28;20217;-68
2023/01/10 06:55:17;;;;;;;4.97;2.03;;;6.30;97.20;;;;;;1707378;28;20297;-68
2023/01/10 06:56:09;;;;;;;7.03;2.50;;;6.30;97.20;;;;;;1707269;28;20217;-69
2023/01/10 06:57:01;;;;;;;5.57;2.17;;;6.30;97.20;;;;;;1707213;28;20278;-69
2023/01/10 06:57:55;;;;;;;7.85;2.75;;;6.20;97.20;;;;;;1706908;28;20230;-69
2023/01/10 06:58:48;;;;;;;6.30;2.40;;;6.20;97.20;;;;;;1706768;28;20281;-68
2023/01/10 06:59:39;;;;;;;7.68;2.60;;;6.20;97.20;;;;;;1707335;28;20210;-69
2023/01/10 07:00:31;;;;;;;6.83;2.13;;;6.20;97.20;;;;;;1707121;28;20823;-69
2023/01/10 07:01:22;;;;;;;8.13;2.95;;;6.20;97.20;;;;;;1707100;28;20214;-69
2023/01/10 07:02:16;;;;;;;5.90;2.92;;;6.20;97.20;;;;;;1707140;28;20194;-69
2023/01/10 07:03:08;;;;;;;5.93;2.60;;;6.20;97.20;;;;;;1707253;28;20213;-69
2023/01/10 07:04:00;;;;;;;4.88;3.17;;;6.20;97.20;;;;;;1707299;28;20731;-69
2023/01/10 07:04:50;;;;;;;7.22;3.00;;;6.20;97.20;;;;;;1707256;28;20237;-69
2023/01/10 07:05:42;;;;;;;6.57;2.43;;;6.20;97.20;;;;;;1707394;28;20202;-68
2023/01/10 07:06:36;;;;;;;6.50;2.40;;;6.20;97.20;;;;;;1707201;28;20207;-68
2023/01/10 07:07:28;;;;;;;8.90;2.58;;;6.20;97.20;;;;;;1706961;28;20202;-69
2023/01/10 07:08:18;;;;;;;9.82;2.55;;;6.20;97.20;;;;;;1704274;28;20206;-68
2023/01/10 07:09:10;;;;;;;3.60;1.63;;;6.20;97.20;;;;;;1700141;29;20215;-68
2023/01/10 07:10:02;;;;;;;7.28;2.45;;;6.30;97.20;;;;;;1706138;29;20230;-69
2023/01/10 07:10:53;;;;;;;5.10;1.95;;;6.30;97.20;;;;;;1707119;28;20257;-69
2023/01/10 07:11:44;;;;;;;7.85;2.67;;;6.30;97.20;;;;;;1707375;28;20662;-69
2023/01/10 07:12:36;;;;;;;5.77;2.37;;;6.30;97.20;;;;;;1707196;28;20202;-69
2023/01/10 07:13:27;;;;;;;6.07;2.17;;;6.30;97.20;;;;;;1707063;28;20198;-69
2023/01/10 07:14:18;;;;;;;7.37;2.50;;;6.30;97.20;;;;;;1707363;28;20202;-69
2023/01/10 07:15:10;;;;;;;8.68;2.97;;;6.30;97.20;;;;;;1706852;28;20611;-68
2023/01/10 07:16:03;;;;;;;4.75;2.80;;;6.30;97.20;;;;;;1706742;28;20682;-68
2023/01/10 07:16:53;;;;;;;5.00;2.55;;;6.30;97.20;;;;;;1706923;28;20202;-67
2023/01/10 07:17:46;;;;;;;7.23;2.53;;;6.30;97.20;;;;;;1707276;28;20665;-67
2023/01/10 07:18:39;;;;;;;6.50;2.78;;;6.30;97.20;;;;;;1706777;28;20248;-67
2023/01/10 07:19:30;;;;;;;6.00;2.15;;;6.30;97.20;;;;;;1707172;28;20198;-67
2023/01/10 07:20:21;;;;;;;5.25;2.20;;;6.30;97.20;;;;;;1707103;28;20202;-68
2023/01/10 07:21:14;;;;;;;6.23;2.30;;;6.30;97.20;;;;;;1707213;28;20203;-67
2023/01/10 07:22:04;;;;;;;10.52;2.30;;;6.30;97.20;;;;;;1707146;28;20309;-69
2023/01/10 07:22:58;;;;;;;5.93;2.23;;;6.30;97.20;;;;;;1707292;28;20198;-68
2023/01/10 07:23:49;;;;;;;4.60;2.00;;;6.30;97.20;;;;;;1706702;28;20214;-68
2023/01/10 07:24:41;;;;;;;3.05;1.77;;;6.30;97.20;;;;;;1712088;28;20221;-68
2023/01/10 07:25:32;;;;;;;7.32;2.15;;;6.40;97.20;;;;;;1708925;28;20203;-67
2023/01/10 07:26:24;;;;;;;2.95;1.98;;;6.40;97.20;;;;;;1713865;28;20292;-69
2023/01/10 07:27:15;;;;;;;5.43;2.40;;;6.40;97.20;;;;;;1713694;28;20292;-68
2023/01/10 07:28:07;;;;;;;6.97;2.35;;;6.40;97.20;;;;;;1713856;28;20205;-68
2023/01/10 07:28:59;;;;;;;4.43;2.03;;;6.40;97.20;;;;;;1710503;28;20230;-67
2023/01/10 07:29:51;;;;;;;4.43;2.10;;;6.40;97.20;;;;;;1706567;28;20740;-67
2023/01/10 07:30:41;;;;;;;5.88;2.10;;;6.40;97.20;;;;;;1706664;28;20218;-67
2023/01/10 07:31:33;;;;;;;12.70;4.00;;;6.40;97.20;;;;;;1706573;28;20209;-67
2023/01/10 07:32:24;;;;;;;8.77;4.70;;;6.50;97.20;;;;;;1707210;28;20209;-67
2023/01/10 07:33:17;;;;;;;9.30;3.80;;;6.50;97.20;;;;;;1704972;28;20202;-69
2023/01/10 07:34:08;;;;;;;10.43;4.82;;;6.50;97.20;;;;;;1700552;29;20443;-69
2023/01/10 07:34:59;;;;;;;7.50;4.10;;;6.50;97.20;;;;;;1700709;29;20207;-69
2023/01/10 07:35:50;;;;;;;7.00;4.05;;;6.50;97.20;;;;;;1700530;29;20626;-69
2023/01/10 07:36:42;;;;;;;7.23;3.47;;;6.50;97.20;;;;;;1700448;29;20206;-69
2023/01/10 07:37:33;;;;;;;7.95;2.58;;;6.50;97.20;;;;;;1700553;29;20223;-69
2023/01/10 07:38:24;;;;;;;8.65;2.80;;;6.50;97.20;;;;;;1700527;29;20274;-68
2023/01/10 07:39:15;;;;;;;8.20;2.72;;;6.50;97.20;;;;;;1700068;29;20210;-68
2023/01/10 07:40:08;;;;;;;8.23;2.67;;;6.60;97.20;;;;;;1700409;29;20209;-68
2023/01/10 07:41:01;;;;;;;9.98;2.90;;;6.50;97.20;;;;;;1700476;29;20231;-68
2023/01/10 07:41:54;;;;;;;5.38;2.22;;;6.60;97.20;;;;;;1700425;29;20207;-68
2023/01/10 07:42:44;;;;;;;5.28;1.90;;;6.60;97.20;;;;;;1700666;29;20246;-68
2023/01/10 07:43:36;;;;;;;5.37;2.23;;;6.60;97.20;;;;;;1702949;29;20215;-67
2023/01/10 07:44:27;;;;;;;6.45;2.17;;;6.60;97.20;;;;;;1706613;28;20683;-67
2023/01/10 07:45:19;;;;;;;5.03;2.00;;;6.60;97.20;;;;;;1707093;28;20715;-68
2023/01/10 07:46:11;;;;;;;5.40;2.92;;;6.50;97.20;;;;;;1707024;28;20230;-68
2023/01/10 07:47:03;;;;;;;7.47;2.90;;;6.50;97.20;;;;;;1700311;29;20203;-68
2023/01/10 07:47:56;;;;;;;12.35;4.65;;;6.50;97.20;;;;;;1700435;29;20212;-68
2023/01/10 07:48:49;;;;;;;5.82;3.60;;;6.50;97.20;;;;;;1704195;29;20222;-67
2023/01/10 07:49:39;;;;;;;9.05;4.28;;;6.60;97.20;;;;;;1707238;28;20732;-68
2023/01/10 07:50:33;;;;;;;5.87;3.33;;;6.50;97.20;;;;;;1707321;28;20297;-68
2023/01/10 07:51:24;;;;;;;5.50;2.67;;;6.60;97.20;;;;;;1707326;28;20203;-68
2023/01/10 07:52:16;;;;;;;7.70;2.57;;;6.60;97.20;;;;;;1707084;28;20207;-67
2023/01/10 07:53:08;;;;;;;7.53;2.55;;;6.60;97.20;;;;;;1707195;28;20210;-68
2023/01/10 07:53:58;;;;;;;7.65;3.42;;;6.60;97.20;;;;;;1707208;28;20209;-68
2023/01/10 07:54:50;;;;;;;8.60;2.60;;;6.60;97.20;;;;;;1707097;28;20672;-68
2023/01/10 07:55:44;;;;;;;5.82;2.22;;;6.60;97.20;;;;;;1707129;28;20210;-68
2023/01/10 07:56:36;;;;;;;6.35;2.38;;;6.60;97.20;;;;;;1706918;28;20245;-67
2023/01/10 07:57:27;;;;;;;4.97;2.25;;;6.60;97.20;;;;;;1697878;28;20213;-68
2023/01/10 07:58:18;;;;;;;4.07;2.17;;;6.60;97.20;;;;;;1704593;28;20202;-68
2023/01/10 07:59:10;;;;;;;5.20;2.35;;;6.60;97.20;;;;;;1705143;28;20226;-67
2023/01/10 08:00:01;;;;;;;5.90;2.28;;;6.70;97.20;;;;;;1706092;28;20226;-68
2023/01/10 08:00:56;;;;;;;5.95;2.40;;;6.70;97.20;;;;;;1699887;29;20270;-68
2023/01/10 08:01:47;;;;;;;6.28;3.30;;;6.70;97.20;;;;;;1699019;29;20564;-68
2023/01/10 08:02:39;;;;;;;11.87;5.57;;;6.70;97.20;;;;;;1700012;28;20639;-68
2023/01/10 08:03:31;;;;;;;8.82;4.55;;;6.80;97.20;;;;;;1705572;28;20214;-68
2023/01/10 08:04:23;;;;;;;8.60;6.00;;;6.80;97.20;;;;;;1706783;28;20719;-68
2023/01/10 08:05:15;;;;;;;12.07;5.78;;;6.80;97.20;;;;;;1706354;28;20206;-68
2023/01/10 08:06:09;;;;;;;10.60;5.55;;;6.80;97.20;;;;;;1706543;28;20206;-68
2023/01/10 08:07:00;;;;;;;8.57;4.03;;;6.80;97.20;;;;;;1705966;28;20207;-68
2023/01/10 08:07:54;;;;;;;13.20;4.83;;;6.80;97.20;;;;;;1705385;28;20254;-67
2023/01/10 08:08:44;;;;;;;8.60;3.33;;;6.80;97.20;;;;;;1705406;28;20913;-69
2023/01/10 08:09:36;;;;;;;6.27;2.33;;;6.80;97.20;;;;;;1706866;28;20625;-68
2023/01/10 08:10:27;;;;;;;5.55;2.58;;;6.80;97.20;;;;;;1707276;28;20203;-68
2023/01/10 08:11:19;;;;;;;6.77;2.57;;;6.80;97.20;;;;;;1706997;28;20205;-67
2023/01/10 08:12:09;;;;;;;18.65;3.40;;;6.80;97.20;;;;;;1706863;28;20649;-69
2023/01/10 08:13:02;;;;;;;8.87;2.90;;;6.80;97.20;;;;;;1707060;28;20269;-68
2023/01/10 08:13:54;;;;;;;7.00;2.63;;;6.80;97.20;;;;;;1706988;28;20257;-68
2023/01/10 08:14:45;;;;;;;8.35;2.35;;;6.80;97.20;;;;;;1707054;28;20695;-68
2023/01/10 08:15:38;;;;;;;4.93;2.27;;;6.80;97.20;;;;;;1707123;28;20634;-67
2023/01/10 08:16:29;;;;;;;6.18;2.55;;;6.90;97.20;;;;;;1706932;28;20222;-69
2023/01/10 08:17:21;;;;;;;8.00;2.50;;;6.80;97.20;;;;;;1706933;28;20653;-67
2023/01/10 08:18:12;;;;;;;4.20;2.65;;;6.80;97.20;;;;;;1706863;28;20199;-71
2023/01/10 08:19:04;;;;;;;6.70;2.77;;;6.90;97.20;;;;;;1706419;28;20238;-67
2023/01/10 08:19:56;;;;;;;6.38;2.63;;;6.90;97.20;;;;;;1706796;28;20206;-68
2023/01/10 08:20:49;;;;;;;5.35;2.30;;;6.90;97.20;;;;;;1706958;28;20296;-68
2023/01/10 08:21:40;;;;;;;6.35;2.05;;;6.90;97.20;;;;;;1707076;28;20206;-68
2023/01/10 08:22:31;;;;;;;9.10;2.30;;;6.90;97.20;;;;;;1706641;28;20207;-68
2023/01/10 08:23:23;;;;;;;4.73;2.27;;;6.90;97.20;;;;;;1707112;28;20198;-68
2023/01/10 08:24:13;;;;;;;5.93;2.20;;;6.90;97.20;;;;;;1706679;28;20688;-68
2023/01/10 08:25:05;;;;;;;5.53;2.40;;;6.90;97.20;;;;;;1707013;28;20768;-68
2023/01/10 08:25:57;;;;;;;8.07;2.30;;;6.90;97.20;;;;;;1706896;28;20211;-68
2023/01/10 08:26:49;;;;;;;3.22;1.80;;;6.90;97.20;;;;;;1706670;28;20297;-68
2023/01/10 08:27:40;;;;;;;3.25;1.52;;;6.90;97.20;;;;;;1707799;28;20210;-68
2023/01/10 08:28:32;;;;;;;4.50;1.93;;;6.90;97.20;;;;;;1708141;28;20199;-68
2023/01/10 08:29:23;;;;;;;4.07;1.90;;;6.90;97.20;;;;;;1707446;28;20246;-68
2023/01/10 08:30:15;;;;;;;6.30;2.20;;;6.80;97.20;;;;;;1707990;28;20281;-67
2023/01/10 08:31:07;;;;;;;5.28;1.90;;;6.80;97.20;;;;;;1708067;28;20951;-68
2023/01/10 08:31:59;;;;;;;5.53;1.98;;;6.80;97.20;;;;;;1708040;28;20209;-68
2023/01/10 08:32:51;;;;;;;6.10;2.42;;;6.80;97.20;;;;;;1708171;28;20630;-68
2023/01/10 08:33:42;;;;;;;7.13;1.95;;;6.80;97.20;;;;;;1708145;28;20210;-68
2023/01/10 08:34:34;;;;;;;3.80;1.88;;;6.80;97.20;;;;;;1708153;28;20202;-68
2023/01/10 08:35:26;;;;;;;6.53;2.05;;;6.80;97.20;;;;;;1708194;28;20211;-68
2023/01/10 08:36:20;;;;;;;4.90;1.83;;;6.80;97.20;;;;;;1708139;28;20247;-68
2023/01/10 08:37:13;;;;;;;5.47;1.83;;;6.80;97.20;;;;;;1707942;28;20202;-68
2023/01/10 08:38:04;;;;;;;6.78;2.22;;;6.70;97.20;;;;;;1708104;28;20260;-67
2023/01/10 08:38:56;;;;;;;7.93;2.08;;;6.80;97.20;;;;;;1707026;28;20676;-68
2023/01/10 08:39:47;;;;;;;7.30;1.90;;;6.80;97.20;;;;;;1707589;28;20202;-68
2023/01/10 08:40:39;;;;;;;6.27;1.60;;;6.80;97.20;;;;;;1707891;28;20221;-68
2023/01/10 08:41:30;;;;;;;5.25;2.10;;;6.80;97.20;;;;;;1707917;28;20972;-68
2023/01/10 08:42:21;;;;;;;3.93;1.80;;;6.80;97.20;;;;;;1708145;28;20592;-68
2023/01/10 08:43:13;;;;;;;6.47;1.80;;;6.80;97.20;;;;;;1708064;28;20208;-67
2023/01/10 08:44:05;;;;;;;4.97;1.95;;;6.80;97.20;;;;;;1708128;28;20202;-67
2023/01/10 08:44:57;;;;;;;6.38;1.98;;;6.90;97.20;;;;;;1708157;28;20213;-68
2023/01/10 08:45:49;;;;;;;5.60;1.95;;;6.80;97.20;;;;;;1707610;28;20554;-68
2023/01/10 08:46:41;;;;;;;8.27;2.38;;;6.90;97.20;;;;;;1707976;28;20668;-68
2023/01/10 08:47:33;;;;;;;5.20;1.98;;;6.80;97.20;;;;;;1708029;28;20219;-68
2023/01/10 08:48:24;;;;;;;7.25;1.75;;;6.80;97.20;;;;;;1708142;28;20206;-68
2023/01/10 08:49:15;;;;;;;11.30;2.50;;;6.80;97.20;;;;;;1707426;28;20262;-68
2023/01/10 08:50:08;;;;;;;4.33;1.73;;;6.80;97.20;;;;;;1707744;28;20207;-68
2023/01/10 08:51:06;;;;;;;6.78;2.20;;;6.80;97.20;;;;;;1708081;28;20466;-68
2023/01/10 08:51:58;;;;;;;6.53;2.55;;;6.80;97.20;;;;;;1708045;28;20297;-68
2023/01/10 08:52:49;;;;;;;6.97;2.47;;;6.80;97.20;;;;;;1708156;28;20210;-68
2023/01/10 08:53:41;;;;;;;5.60;2.03;;;6.80;97.20;;;;;;1708026;28;20294;-68
2023/01/10 08:54:32;;;;;;;7.25;2.20;;;6.80;97.20;;;;;;1708055;28;20206;-68
2023/01/10 08:55:24;;;;;;;5.87;2.50;;;6.80;97.20;;;;;;1708246;28;20983;-68
2023/01/10 08:56:15;;;;;;;6.50;2.20;;;6.80;97.20;;;;;;1707968;28;20206;-67
2023/01/10 08:57:06;;;;;;;5.53;2.57;;;6.80;97.20;;;;;;1707880;28;20198;-68
2023/01/10 08:57:58;;;;;;;5.50;2.10;;;6.80;97.20;;;;;;1708097;28;20211;-68
2023/01/10 08:58:51;;;;;;;4.90;2.53;;;6.80;97.20;;;;;;1707540;28;20210;-68
2023/01/10 08:59:42;;;;;;;4.05;2.08;;;6.80;97.20;;;;;;1708073;28;20207;-68
2023/01/10 09:00:33;;;;;;;7.00;2.87;;;6.80;97.20;;;;;;1707745;28;20222;-68
2023/01/10 09:01:24;;;;;;;7.68;2.88;;;6.80;97.20;;;;;;1708220;28;20453;-68
2023/01/10 09:02:16;;;;;;;8.33;2.10;;;6.80;97.20;;;;;;1707936;28;20198;-67
2023/01/10 09:03:07;;;;;;;5.90;3.00;;;6.70;97.20;;;;;;1708119;28;20210;-68
2023/01/10 09:03:59;;;;;;;9.10;3.35;;;6.70;97.20;;;;;;1707966;28;20261;-68
2023/01/10 09:04:49;;;;;;;5.85;2.50;;;6.70;97.20;;;;;;1707909;28;20206;-68
2023/01/10 09:05:41;;;;;;;6.47;2.47;;;6.70;97.20;;;;;;1708042;28;20199;-68
2023/01/10 09:06:34;;;;;;;7.43;3.00;;;6.70;97.20;;;;;;1707823;28;20217;-68
2023/01/10 09:07:25;;;;;;;5.68;2.45;;;6.70;97.20;;;;;;1707952;28;20732;-68
2023/01/10 09:08:17;;;;;;;7.05;2.90;;;6.60;97.20;;;;;;1707863;28;20211;-68
2023/01/10 09:09:08;;;;;;;11.23;2.42;;;6.60;97.20;;;;;;1707164;28;20573;-68
2023/01/10 09:10:00;;;;;;;5.45;2.80;;;6.60;97.20;;;;;;1707741;28;20210;-67
2023/01/10 09:10:51;;;;;;;6.50;2.50;;;6.60;97.20;;;;;;1707912;28;20245;-68
2023/01/10 09:11:42;;;;;;;6.50;2.40;;;6.60;97.20;;;;;;1707869;28;20221;-68
2023/01/10 09:13:43;;;;;;;8.32;3.38;;;6.60;97.20;;;;;;1708012;28;20291;-68
2023/01/10 09:14:34;;;;;;;7.30;2.42;;;6.50;97.20;;;;;;1707900;28;20242;-68
2023/01/10 09:15:29;;;;;;;4.60;2.47;;;6.50;97.20;;;;;;1708058;28;20217;-68
2023/01/10 09:16:19;;;;;;;6.07;2.15;;;6.60;97.20;;;;;;1707978;28;20199;-67
2023/01/10 09:17:11;;;;;;;6.23;2.53;;;6.60;97.20;;;;;;1707786;28;20207;-68
2023/01/10 09:18:04;;;;;;;5.03;2.40;;;6.60;97.20;;;;;;1708002;28;20207;-68
2023/01/10 09:18:56;;;;;;;9.00;2.60;;;6.50;97.20;;;;;;1700808;29;20214;-68
2023/01/10 09:19:46;;;;;;;5.00;2.50;;;6.60;97.20;;;;;;1700412;29;20258;-67
2023/01/10 09:20:40;;;;;;;10.47;2.63;;;6.60;97.20;;;;;;1700611;29;20287;-68
2023/01/10 09:21:30;;;;;;;7.57;2.75;;;6.60;97.20;;;;;;1701073;29;20214;-68
2023/01/10 09:22:23;;;;;;;7.30;2.27;;;6.60;97.20;;;;;;1701442;29;20209;-68
2023/01/10 09:23:17;;;;;;;4.43;2.20;;;6.70;97.20;;;;;;1702877;28;20211;-68
2023/01/10 09:24:09;;;;;;;7.63;2.60;;;6.70;97.20;;;;;;1707982;28;20226;-68
2023/01/10 09:25:00;;;;;;;6.03;2.55;;;6.70;97.20;;;;;;1707766;28;20206;-68
2023/01/10 09:25:54;;;;;;;6.70;2.40;;;6.70;97.20;;;;;;1707734;28;20194;-68
2023/01/10 09:26:45;;;;;;;8.57;3.30;;;6.70;97.20;;;;;;1707644;28;20218;-68
2023/01/10 09:27:37;;;;;;;7.37;3.17;;;6.70;97.20;;;;;;1707971;28;20262;-68
2023/01/10 09:28:28;;;;;;;6.72;2.92;;;6.70;97.20;;;;;;1707760;28;20207;-68
2023/01/10 09:29:20;;;;;;;8.70;2.72;;;6.70;97.20;;;;;;1707346;28;20587;-68
2023/01/10 09:30:12;;;;;;;4.40;2.22;;;6.70;97.20;;;;;;1707518;28;20203;-68
2023/01/10 09:31:05;;;;;;;5.63;2.45;;;6.60;97.20;;;;;;1707689;28;20210;-68
2023/01/10 09:31:56;;;;;;;5.88;2.60;;;6.60;97.20;;;;;;1707846;28;20240;-67
2023/01/10 09:32:50;;;;;;;7.83;2.70;;;6.60;97.20;;;;;;1707891;28;20209;-68
2023/01/10 09:33:43;;;;;;;8.63;2.65;;;6.60;97.20;;;;;;1707790;28;20446;-68
2023/01/10 09:34:33;;;;;;;5.60;2.75;;;6.60;97.20;;;;;;1707774;28;20342;-68
2023/01/10 09:35:27;;;;;;;5.70;2.60;;;6.60;97.20;;;;;;1707820;28;20334;-68
2023/01/10 09:36:18;;;;;;;8.88;2.95;;;6.70;97.20;;;;;;1707793;28;20210;-68
2023/01/10 09:37:09;;;;;;;7.22;2.60;;;6.70;97.20;;;;;;1707636;28;20211;-68
2023/01/10 09:38:03;;;;;;;4.63;2.43;;;6.70;97.20;;;;;;1707890;28;20203;-69
2023/01/10 09:38:55;;;;;;;7.93;2.55;;;6.70;97.20;;;;;;1707121;28;20472;-68
2023/01/10 09:39:46;;;;;;;6.80;2.67;;;6.80;97.20;;;;;;1707369;28;20225;-68
2023/01/10 09:41:05;;;;;;;8.60;2.67;;;6.80;97.20;;;;;;1707661;28;20222;-68
2023/01/10 09:42:22;;;;;;;8.57;3.13;;;6.80;97.20;;;;;;1707325;29;20218;-68
2023/01/10 09:43:21;;;;;;;6.57;3.45;;;6.90;97.20;;;;;;1707558;28;20217;-68
2023/01/10 09:44:19;;;;;;;7.78;2.95;;;6.90;97.20;;;;;;1706086;29;20206;-70
2023/01/10 09:45:17;;;;;;;8.40;2.53;;;6.90;97.20;;;;;;1707875;28;20195;-68
2023/01/10 09:46:14;;;;;;;8.00;2.95;;;6.90;97.20;;;;;;1707839;28;20183;-68
2023/01/10 09:47:16;;;;;;;5.72;2.15;;;7.00;97.20;;;;;;1707695;28;20194;-68
2023/01/10 09:48:15;;;;;;;9.10;2.90;;;7.00;97.20;;;;;;1707795;28;20261;-68
2023/01/10 09:49:16;;;;;;;5.50;2.42;;;7.00;97.20;;;;;;1700629;29;20196;-68
2023/01/10 09:50:16;;;;;;;4.15;2.42;;;7.00;97.20;;;;;;1700925;29;20218;-68
2023/01/10 09:51:22;;;;;;;6.53;2.67;;;7.00;97.20;;;;;;1700900;29;20587;-68
2023/01/10 09:52:22;;;;;;;7.85;2.83;;;7.10;97.20;;;;;;1701084;29;20645;-68
2023/01/10 09:53:19;;;;;;;6.90;2.50;;;7.10;97.20;;;;;;1700513;29;20718;-67
2023/01/10 09:54:14;;;;;;;6.00;3.00;;;7.20;97.20;;;;;;1700483;29;20188;-68
2023/01/10 09:55:22;;;;;;;4.07;2.00;;;7.20;97.20;;;;;;1701111;29;20294;-68
2023/01/10 09:56:15;;;;;;;6.80;2.35;;;7.30;97.20;;;;;;1701156;29;20279;-68
2023/01/10 09:57:14;;;;;;;5.40;2.25;;;7.30;97.20;;;;;;1700826;29;20211;-68
2023/01/10 09:58:12;;;;;;;3.85;1.88;;;7.30;97.20;;;;;;1707290;29;20242;-68
2023/01/10 09:59:04;;;;;;;6.70;3.28;;;7.30;97.20;;;;;;1707315;28;20198;-67
2023/01/10 09:59:56;;;;;;;5.85;2.35;;;7.30;97.20;;;;;;1707475;28;20685;-68
2023/01/10 10:00:51;;;;;;;6.13;2.28;;;7.30;97.20;;;;;;1707465;28;20968;-68
2023/01/10 10:01:43;;;;;;;5.22;2.40;;;7.30;97.20;;;;;;1707521;28;20213;-68
2023/01/10 10:02:40;;;;;;;6.40;2.78;;;7.30;97.20;;;;;;1707636;28;20209;-68
2023/01/10 10:03:37;;;;;;;4.80;2.10;;;7.20;97.20;;;;;;1707685;28;20207;-68
2023/01/10 10:04:33;;;;;;;6.40;2.33;;;7.20;97.20;;;;;;1707572;29;20246;-68
2023/01/10 10:05:27;;;;;;;6.63;2.13;;;7.20;97.20;;;;;;1707621;28;20214;-68
2023/01/10 10:06:19;;;;;;;4.18;2.13;;;7.30;97.20;;;;;;1707445;28;20234;-68
2023/01/10 10:07:13;;;;;;;4.78;1.98;;;7.30;97.20;;;;;;1707258;28;20221;-68
2023/01/10 10:08:11;;;;;;;4.03;1.80;;;7.40;97.20;;;;;;1707620;28;20213;-68
2023/01/10 10:09:04;;;;;;;7.53;2.28;;;7.50;97.20;;;;;;1707197;28;20191;-67
2023/01/10 10:09:55;;;;;;;6.72;2.20;;;7.70;97.20;;;;;;1707242;28;20233;-67
2023/01/10 10:10:56;;;;;;;4.60;1.80;;;7.80;97.20;;;;;;1707621;28;20337;-67
2023/01/10 10:11:58;;;;;;;5.53;2.03;;;7.90;97.20;;;;;;1707477;28;20681;-67
2023/01/10 10:12:57;;;;;;;5.35;1.77;;;8.00;97.20;;;;;;1707537;28;20285;-67
2023/01/10 10:13:55;;;;;;;2.80;1.48;;;8.10;97.20;;;;;;1707272;28;20667;-67
2023/01/10 10:14:59;;;;;;;4.07;1.55;;;8.20;97.20;;;;;;1707697;28;20218;-67
2023/01/10 10:15:57;;;;;;;5.05;2.00;;;8.30;97.20;;;;;;1706838;29;20233;-70
2023/01/10 10:17:05;;;;;;;3.90;1.95;;;8.30;97.20;;;;;;1707352;28;20238;-70
2023/01/10 10:18:09;;;;;;;7.05;2.20;;;8.50;97.20;;;;;;1707650;28;20197;-70
2023/01/10 10:19:10;;;;;;;5.75;1.65;;;8.70;97.20;;;;;;1706961;28;20226;-69
2023/01/10 10:20:14;;;;;;;4.80;2.00;;;8.90;97.20;;;;;;1707405;28;20210;-70
2023/01/10 10:21:13;;;;;;;5.20;1.80;;;9.10;97.20;;;;;;1707756;28;20586;-69
2023/01/10 10:22:11;;;;;;;3.55;1.80;;;9.40;97.20;;;;;;1707680;29;20222;-70
2023/01/10 10:23:17;;;;;;;6.28;1.95;;;9.70;97.20;;;;;;1707856;28;20187;-70
2023/01/10 10:24:30;;;;;;;6.70;2.58;;;9.90;97.20;;;;;;1707488;28;20203;-70
2023/01/10 10:25:44;;;;;;;7.97;2.33;;;10.00;97.20;;;;;;1707677;28;20190;-70
2023/01/10 10:26:38;;;;;;;6.25;2.03;;;10.00;97.20;;;;;;1707586;29;20583;-70
2023/01/10 10:27:39;;;;;;;4.35;2.15;;;10.00;97.20;;;;;;1707646;28;20286;-70
2023/01/10 10:28:57;;;;;;;6.05;1.48;;;9.90;97.20;;;;;;1707521;28;20211;-70
2023/01/10 10:30:24;;;;;;;3.90;1.42;;;9.80;97.20;;;;;;1681032;29;20216;-67
2023/01/10 10:31:20;;;;;;;2.70;1.40;;;9.80;97.20;;;;;;1691092;29;20592;-67
2023/01/10 10:32:34;;;;;;;5.50;1.80;;;9.70;97.20;;;;;;1701865;28;20257;-68
2023/01/10 10:33:38;;;;;;;4.68;1.63;;;9.90;97.20;;;;;;1707499;28;20695;-68
2023/01/10 10:34:35;;;;;;;4.70;1.50;;;10.10;97.20;;;;;;1700879;29;20214;-68
2023/01/10 10:35:32;;;;;;;4.07;1.80;;;10.20;97.20;;;;;;1700806;29;20199;-68
2023/01/10 10:36:26;;;;;;;3.25;1.60;;;10.20;97.20;;;;;;1700776;29;20214;-68
2023/01/10 10:37:21;;;;;;;3.78;1.75;;;10.10;97.20;;;;;;1700474;29;20203;-68
2023/01/10 10:38:18;;;;;;;6.22;1.42;;;10.10;97.20;;;;;;1700932;29;20195;-66
2023/01/10 10:39:14;;;;;;;3.65;1.50;;;10.00;97.20;;;;;;1704530;28;20209;-68
2023/01/10 10:40:17;;;;;;;5.20;2.15;;;10.00;97.20;;;;;;1707453;28;20206;-68
2023/01/10 10:41:15;;;;;;;3.95;1.52;;;9.80;97.20;;;;;;1707308;29;20211;-70
2023/01/10 10:42:12;;;;;;;5.78;2.30;;;9.70;97.20;;;;;;1707205;28;20956;-70